Time;durP1;ratioP1;P1;durP2;ratioP2;P2;SDS_P1;SDS_P2;PMS_P1;PMS_P2;Temp;Humidity;BMP_temperature;BMP_pressure;BME280_temperature;BME280_humidity;BME280_pressure;Samples;Min_cycle;Max_cycle;Signal;HPM_P1;HPM_P2
2023/12/12 00:00:29;;;;;;;19.90;5.07;;;7.30;99.90;;;;;;6279075;22;20007;-80
2023/12/12 00:02:56;;;;;;;20.05;4.90;;;7.30;99.90;;;;;;6280037;22;20004;-81
2023/12/12 00:05:21;;;;;;;14.27;5.03;;;7.30;99.90;;;;;;6250085;22;20433;-80
2023/12/12 00:07:47;;;;;;;17.65;6.20;;;7.30;99.90;;;;;;6253064;22;20060;-81
2023/12/12 00:10:13;;;;;;;15.52;5.68;;;7.30;99.90;;;;;;6251827;22;20015;-80
2023/12/12 00:12:39;;;;;;;15.25;5.30;;;7.30;99.90;;;;;;6251334;22;20051;-81
2023/12/12 00:15:05;;;;;;;20.10;4.95;;;7.20;99.90;;;;;;6276974;22;20011;-80
2023/12/12 00:17:31;;;;;;;23.70;4.68;;;7.30;99.90;;;;;;6277249;22;20008;-80
2023/12/12 00:19:57;;;;;;;18.33;5.50;;;7.30;99.90;;;;;;6250165;22;20000;-81
2023/12/12 00:22:23;;;;;;;13.88;5.32;;;7.20;99.90;;;;;;6277227;22;20003;-81
2023/12/12 00:24:49;;;;;;;11.93;3.28;;;7.20;99.90;;;;;;6251347;22;20455;-80
2023/12/12 00:27:15;;;;;;;16.42;4.38;;;7.30;99.90;;;;;;6278721;22;20007;-80
2023/12/12 00:29:40;;;;;;;14.32;3.50;;;7.20;99.90;;;;;;6276775;22;20012;-80
2023/12/12 00:32:07;;;;;;;14.95;3.78;;;7.20;99.90;;;;;;6277431;22;20477;-80
2023/12/12 00:34:40;;;;;;;14.63;3.28;;;7.20;99.90;;;;;;6278110;22;20066;-80
2023/12/12 00:37:05;;;;;;;10.80;3.20;;;7.20;99.90;;;;;;6277226;22;20283;-80
2023/12/12 00:39:36;;;;;;;16.85;3.28;;;7.20;99.90;;;;;;6276444;22;19999;-80
2023/12/12 00:42:01;;;;;;;10.70;3.03;;;7.10;99.90;;;;;;6276357;22;20057;-81
2023/12/12 00:44:27;;;;;;;15.77;2.67;;;7.20;99.90;;;;;;6276809;22;20003;-80
2023/12/12 00:46:53;;;;;;;17.10;3.30;;;7.10;99.90;;;;;;6251858;22;20110;-80
2023/12/12 00:49:19;;;;;;;13.90;2.70;;;7.10;99.90;;;;;;6251962;22;20426;-81
2023/12/12 00:51:45;;;;;;;18.45;4.60;;;7.00;99.90;;;;;;6275527;22;20003;-80
2023/12/12 00:54:11;;;;;;;18.98;4.00;;;7.00;99.90;;;;;;6251570;22;20012;-81
2023/12/12 00:56:37;;;;;;;19.00;3.17;;;6.90;99.90;;;;;;6250447;22;20015;-82
2023/12/12 00:59:03;;;;;;;16.35;3.92;;;6.90;99.90;;;;;;6274890;22;20007;-82
2023/12/12 01:01:29;;;;;;;14.07;4.03;;;6.80;99.90;;;;;;6272205;22;19999;-81
2023/12/12 01:03:54;;;;;;;12.52;3.67;;;6.70;99.90;;;;;;6275153;22;20008;-82
2023/12/12 01:06:23;;;;;;;24.50;5.35;;;6.60;99.90;;;;;;6248347;22;20016;-80
2023/12/12 01:08:48;;;;;;;15.80;3.92;;;6.50;99.90;;;;;;6273867;22;20010;-82
2023/12/12 01:11:14;;;;;;;17.05;5.15;;;6.40;99.90;;;;;;6274096;22;20004;-82
2023/12/12 01:13:40;;;;;;;18.13;3.60;;;6.30;99.90;;;;;;6274660;22;20007;-81
2023/12/12 01:16:06;;;;;;;17.65;3.70;;;6.20;99.90;;;;;;6276538;22;20004;-80
2023/12/12 01:18:32;;;;;;;18.40;3.95;;;6.10;99.90;;;;;;6273023;22;20765;-81
2023/12/12 01:20:58;;;;;;;18.55;3.90;;;6.00;99.90;;;;;;6273918;22;20023;-81
2023/12/12 01:23:23;;;;;;;20.20;3.30;;;6.00;99.90;;;;;;6251916;22;20011;-82
2023/12/12 01:25:49;;;;;;;19.80;4.63;;;6.00;99.90;;;;;;6277773;22;20007;-82
2023/12/12 01:28:15;;;;;;;25.13;4.70;;;6.00;99.90;;;;;;6277352;22;20035;-83
2023/12/12 01:30:40;;;;;;;11.90;3.53;;;6.00;99.90;;;;;;6275863;22;20434;-82
2023/12/12 01:33:06;;;;;;;10.35;2.72;;;6.00;99.90;;;;;;6247201;22;20012;-82
2023/12/12 01:35:32;;;;;;;10.52;4.05;;;6.00;99.90;;;;;;6276052;22;20288;-81
2023/12/12 01:37:58;;;;;;;18.77;2.95;;;6.10;99.90;;;;;;6223609;23;20359;-83
2023/12/12 01:40:23;;;;;;;20.20;3.30;;;6.00;99.90;;;;;;6250609;22;20006;-82
2023/12/12 01:42:49;;;;;;;14.95;3.58;;;6.00;99.90;;;;;;6275247;22;20366;-82
2023/12/12 01:45:15;;;;;;;20.33;3.65;;;6.10;99.90;;;;;;6250568;22;20057;-81
2023/12/12 01:47:40;;;;;;;14.40;2.78;;;6.10;99.90;;;;;;6274757;22;20008;-80
2023/12/12 01:50:07;;;;;;;15.02;2.97;;;6.10;99.90;;;;;;6275123;22;20011;-82
2023/12/12 01:52:34;;;;;;;16.15;2.75;;;6.10;99.90;;;;;;6275438;22;20015;-82
2023/12/12 01:55:00;;;;;;;18.63;3.03;;;6.20;99.90;;;;;;6275332;22;20007;-83
2023/12/12 01:57:26;;;;;;;12.90;2.80;;;6.30;99.90;;;;;;6273965;22;20329;-81
2023/12/12 01:59:53;;;;;;;17.45;2.75;;;6.30;99.90;;;;;;6272889;22;20652;-81
2023/12/12 02:02:19;;;;;;;13.95;2.83;;;6.30;99.90;;;;;;6274614;22;19999;-82
2023/12/12 02:04:48;;;;;;;18.77;5.43;;;6.40;99.90;;;;;;6274945;22;20067;-82
2023/12/12 02:07:14;;;;;;;27.98;7.53;;;6.40;99.90;;;;;;6250071;22;20081;-82
2023/12/12 02:09:40;;;;;;;28.77;5.63;;;6.40;99.90;;;;;;6275618;22;20399;-81
2023/12/12 02:12:06;;;;;;;20.20;6.70;;;6.50;99.90;;;;;;6275382;22;20200;-83
2023/12/12 02:14:33;;;;;;;17.90;5.68;;;6.50;99.90;;;;;;6277232;22;20007;-82
2023/12/12 02:16:59;;;;;;;19.63;5.65;;;6.50;99.90;;;;;;6276028;22;20004;-81
2023/12/12 02:19:24;;;;;;;26.30;6.07;;;6.50;99.90;;;;;;6275775;22;20007;-83
2023/12/12 02:21:50;;;;;;;21.92;5.75;;;6.60;99.90;;;;;;6217507;22;19996;-82
2023/12/12 02:24:16;;;;;;;23.30;5.40;;;6.60;99.90;;;;;;6277753;22;20018;-83
2023/12/12 02:26:42;;;;;;;16.30;5.03;;;6.60;99.90;;;;;;6278059;22;20004;-80
2023/12/12 02:29:08;;;;;;;15.77;5.38;;;6.60;99.90;;;;;;6287799;22;20393;-81
2023/12/12 02:31:33;;;;;;;25.08;6.72;;;6.60;99.90;;;;;;6264001;22;20008;-82
2023/12/12 02:33:59;;;;;;;33.95;7.38;;;6.60;99.90;;;;;;6274202;22;20065;-82
2023/12/12 02:36:25;;;;;;;17.70;4.88;;;6.60;99.90;;;;;;6248716;22;20058;-81
2023/12/12 02:38:51;;;;;;;26.10;5.38;;;6.60;99.90;;;;;;6274842;22;19999;-81
2023/12/12 02:41:16;;;;;;;25.00;6.30;;;6.70;99.90;;;;;;6274567;22;20383;-82
2023/12/12 02:43:42;;;;;;;21.88;6.30;;;6.70;99.90;;;;;;6274462;22;20011;-81
2023/12/12 02:46:08;;;;;;;27.63;8.45;;;6.70;99.90;;;;;;6276073;22;20018;-83
2023/12/12 02:48:33;;;;;;;40.95;11.38;;;6.70;99.90;;;;;;6274575;22;20007;-81
2023/12/12 02:50:59;;;;;;;24.60;7.47;;;6.70;99.90;;;;;;6248401;22;20065;-82
2023/12/12 02:53:25;;;;;;;23.63;7.72;;;6.80;99.90;;;;;;6274377;22;20008;-83
2023/12/12 02:55:50;;;;;;;21.30;7.07;;;6.80;99.90;;;;;;6274045;22;20449;-81
2023/12/12 02:58:16;;;;;;;18.88;6.13;;;6.80;99.90;;;;;;6274087;22;20019;-81
2023/12/12 03:00:42;;;;;;;21.83;5.55;;;6.80;99.90;;;;;;6248703;22;20082;-81
2023/12/12 03:03:07;;;;;;;24.40;5.78;;;6.80;99.90;;;;;;6274480;22;20010;-80
2023/12/12 03:05:33;;;;;;;15.35;3.90;;;6.80;99.90;;;;;;6274303;22;20442;-81
2023/12/12 03:07:59;;;;;;;27.42;3.60;;;6.80;99.90;;;;;;6274099;22;20004;-82
2023/12/12 03:10:24;;;;;;;20.17;4.15;;;6.90;99.90;;;;;;6274543;22;19996;-81
2023/12/12 03:12:50;;;;;;;12.43;3.65;;;6.90;99.90;;;;;;6274398;22;19996;-82
2023/12/12 03:15:16;;;;;;;22.88;3.03;;;6.90;99.90;;;;;;6273948;22;20007;-81
2023/12/12 03:17:42;;;;;;;12.00;2.42;;;6.90;99.90;;;;;;6274255;22;20004;-82
2023/12/12 03:20:08;;;;;;;14.02;3.55;;;7.00;99.90;;;;;;6273931;22;20377;-82
2023/12/12 03:22:34;;;;;;;17.33;3.20;;;6.90;99.90;;;;;;6275013;22;20003;-82
2023/12/12 03:25:00;;;;;;;23.85;3.85;;;6.90;99.90;;;;;;6273938;22;20065;-82
2023/12/12 03:27:26;;;;;;;24.67;4.82;;;6.90;99.90;;;;;;6272321;22;20038;-82
2023/12/12 03:29:52;;;;;;;22.63;4.22;;;6.90;99.90;;;;;;6273945;22;20004;-82
2023/12/12 03:32:17;;;;;;;23.45;4.88;;;6.90;99.90;;;;;;6274605;22;20030;-83
2023/12/12 03:34:43;;;;;;;13.40;3.67;;;6.80;99.90;;;;;;6274107;22;20011;-80
2023/12/12 03:37:09;;;;;;;13.43;3.80;;;6.80;99.90;;;;;;6249372;22;20026;-82
2023/12/12 03:39:37;;;;;;;17.27;4.35;;;6.70;99.90;;;;;;6275468;22;20004;-82
2023/12/12 03:42:03;;;;;;;18.02;5.75;;;6.70;99.90;;;;;;6249446;22;20000;-83
2023/12/12 03:44:29;;;;;;;35.80;7.85;;;6.60;99.90;;;;;;6273956;22;20073;-82
2023/12/12 03:46:54;;;;;;;46.45;12.98;;;6.60;99.90;;;;;;6274612;22;20008;-83
2023/12/12 03:49:20;;;;;;;85.03;25.40;;;6.60;99.90;;;;;;6249075;22;20528;-81
2023/12/12 03:51:46;;;;;;;81.43;25.05;;;6.50;99.90;;;;;;6274808;22;20012;-81
2023/12/12 03:54:11;;;;;;;63.72;18.55;;;6.50;99.90;;;;;;6249317;22;20457;-83
2023/12/12 03:56:37;;;;;;;48.47;13.52;;;6.50;99.90;;;;;;6249863;22;20006;-83
2023/12/12 03:59:04;;;;;;;40.33;11.60;;;6.50;99.90;;;;;;6249524;22;20334;-83
2023/12/12 04:01:31;;;;;;;72.03;16.48;;;6.50;99.90;;;;;;6249456;22;20059;-82
2023/12/12 04:03:57;;;;;;;72.13;17.98;;;6.50;99.90;;;;;;6249208;22;20011;-82
2023/12/12 04:06:23;;;;;;;73.57;16.77;;;6.50;99.90;;;;;;6250206;22;20011;-81
2023/12/12 04:08:49;;;;;;;84.82;24.63;;;6.50;99.90;;;;;;6250591;22;20007;-83
2023/12/12 04:11:15;;;;;;;136.32;32.33;;;6.50;99.90;;;;;;6249628;22;20133;-83
2023/12/12 04:13:42;;;;;;;98.40;26.20;;;6.40;99.90;;;;;;6249925;22;20105;-83
2023/12/12 04:16:08;;;;;;;87.15;22.73;;;6.50;99.90;;;;;;6250332;22;20010;-81
2023/12/12 04:18:34;;;;;;;72.72;18.73;;;6.50;99.90;;;;;;6250589;22;20430;-83
2023/12/12 04:21:00;;;;;;;51.72;14.10;;;6.50;99.90;;;;;;6251486;22;20087;-83
2023/12/12 04:23:26;;;;;;;46.17;13.60;;;6.40;99.90;;;;;;6250885;22;20015;-83
2023/12/12 04:25:53;;;;;;;46.92;11.95;;;6.40;99.90;;;;;;6283496;22;20015;-79
2023/12/12 04:28:20;;;;;;;27.85;7.45;;;6.40;99.90;;;;;;6264883;22;20007;-80
2023/12/12 04:30:46;;;;;;;25.80;6.05;;;6.40;99.90;;;;;;6253426;22;20000;-82
2023/12/12 04:33:12;;;;;;;17.42;4.57;;;6.30;99.90;;;;;;6274077;22;20015;-82
2023/12/12 04:35:38;;;;;;;22.63;4.47;;;6.30;99.90;;;;;;6255457;22;20011;-82
2023/12/12 04:38:04;;;;;;;26.88;6.47;;;6.20;99.90;;;;;;6248509;22;20022;-82
2023/12/12 04:40:30;;;;;;;18.58;6.38;;;6.20;99.90;;;;;;6273068;22;20000;-81
2023/12/12 04:42:55;;;;;;;33.13;9.50;;;6.20;99.90;;;;;;6222612;22;20006;-81
2023/12/12 04:45:21;;;;;;;45.65;13.25;;;6.20;99.90;;;;;;6273420;22;20380;-80
2023/12/12 04:47:47;;;;;;;39.20;12.15;;;6.20;99.90;;;;;;6247787;22;20007;-80
2023/12/12 04:50:12;;;;;;;45.63;13.27;;;6.10;99.90;;;;;;6248215;22;20358;-80
2023/12/12 04:52:38;;;;;;;86.63;22.13;;;6.10;99.90;;;;;;6248245;22;20019;-82
2023/12/12 04:55:04;;;;;;;125.63;29.60;;;6.10;99.90;;;;;;6247419;22;20004;-81
2023/12/12 04:57:30;;;;;;;110.60;26.50;;;6.10;99.90;;;;;;6247515;22;20057;-81
2023/12/12 04:59:56;;;;;;;86.63;23.08;;;6.00;99.90;;;;;;6248598;22;20008;-80
2023/12/12 05:02:22;;;;;;;64.85;18.08;;;6.00;99.90;;;;;;6248481;22;20000;-80
2023/12/12 05:04:48;;;;;;;78.63;18.40;;;5.90;99.90;;;;;;6248928;22;20019;-81
2023/12/12 05:07:15;;;;;;;55.40;12.27;;;6.00;99.90;;;;;;6247788;22;20094;-82
2023/12/12 05:09:41;;;;;;;41.42;11.60;;;6.00;99.90;;;;;;6248066;22;20008;-82
2023/12/12 05:12:07;;;;;;;24.98;8.27;;;6.10;99.90;;;;;;6248592;22;20334;-82
2023/12/12 05:14:34;;;;;;;29.55;5.22;;;6.10;99.90;;;;;;6273558;22;20007;-80
2023/12/12 05:16:59;;;;;;;19.67;3.88;;;6.20;99.90;;;;;;6273930;22;20010;-82
2023/12/12 05:19:25;;;;;;;14.88;3.40;;;6.30;99.90;;;;;;6275429;22;20091;-82
2023/12/12 05:21:51;;;;;;;16.70;2.90;;;6.30;99.90;;;;;;6280289;22;20023;-81
2023/12/12 05:24:18;;;;;;;15.75;2.55;;;6.40;99.90;;;;;;6254722;22;20091;-82
2023/12/12 05:26:43;;;;;;;19.35;3.58;;;6.40;99.90;;;;;;6280329;22;20438;-82
2023/12/12 05:29:09;;;;;;;21.45;4.03;;;6.50;99.90;;;;;;6280372;22;20003;-81
2023/12/12 05:31:35;;;;;;;13.38;3.47;;;6.50;99.90;;;;;;6280512;22;20011;-81
2023/12/12 05:34:01;;;;;;;11.73;3.08;;;6.50;99.90;;;;;;6280477;22;20011;-82
2023/12/12 05:36:26;;;;;;;16.83;4.20;;;6.60;99.90;;;;;;6280030;22;20429;-82
2023/12/12 05:38:53;;;;;;;22.05;4.72;;;6.60;99.90;;;;;;6254019;22;20003;-81
2023/12/12 05:41:18;;;;;;;16.55;4.18;;;6.60;99.90;;;;;;6280294;22;20006;-81
2023/12/12 05:43:44;;;;;;;16.58;4.50;;;6.60;99.90;;;;;;6280150;22;20004;-82
2023/12/12 05:46:10;;;;;;;18.88;3.83;;;6.60;99.90;;;;;;6279481;22;20003;-81
2023/12/12 05:48:36;;;;;;;11.27;2.28;;;6.70;99.90;;;;;;6280075;22;20015;-82
2023/12/12 05:51:02;;;;;;;16.92;3.08;;;6.70;99.90;;;;;;6281078;22;20004;-83
2023/12/12 05:53:29;;;;;;;15.13;2.90;;;6.70;99.90;;;;;;6255813;22;20345;-81
2023/12/12 05:55:57;;;;;;;16.83;2.80;;;6.80;99.90;;;;;;6281559;22;20308;-83
2023/12/12 05:58:23;;;;;;;10.05;3.25;;;6.80;99.90;;;;;;6280582;22;20011;-80
2023/12/12 06:00:51;;;;;;;13.32;2.63;;;6.80;99.90;;;;;;6279376;22;20058;-80
2023/12/12 06:03:17;;;;;;;13.18;3.22;;;6.80;99.90;;;;;;6280681;22;20000;-82
2023/12/12 06:05:43;;;;;;;21.17;4.05;;;6.80;99.90;;;;;;6280554;22;20090;-82
2023/12/12 06:08:11;;;;;;;14.50;2.67;;;6.80;99.90;;;;;;6280718;22;20026;-82
2023/12/12 06:10:37;;;;;;;18.20;3.53;;;6.90;99.90;;;;;;6256041;22;20004;-82
2023/12/12 06:13:03;;;;;;;18.35;3.72;;;6.90;99.90;;;;;;6279806;22;20004;-81
2023/12/12 06:15:29;;;;;;;16.45;2.78;;;6.90;99.90;;;;;;6239420;22;20461;-82
2023/12/12 06:17:55;;;;;;;24.17;2.65;;;6.90;99.90;;;;;;6280522;22;20007;-81
2023/12/12 06:20:20;;;;;;;13.93;3.30;;;7.00;99.90;;;;;;6280065;22;20022;-83
2023/12/12 06:22:46;;;;;;;17.33;3.13;;;7.00;99.90;;;;;;6297592;22;20018;-79
2023/12/12 06:25:12;;;;;;;19.48;3.10;;;7.00;99.90;;;;;;6298888;22;20023;-83
2023/12/12 06:27:38;;;;;;;16.27;3.00;;;7.00;99.90;;;;;;6282918;22;20050;-80
2023/12/12 06:30:04;;;;;;;18.70;2.97;;;7.00;99.90;;;;;;6281944;22;20027;-83
2023/12/12 06:32:30;;;;;;;17.80;4.55;;;7.00;99.90;;;;;;6281829;22;20033;-83
2023/12/12 06:34:56;;;;;;;21.85;3.25;;;7.00;99.90;;;;;;6281171;22;20197;-82
2023/12/12 06:37:22;;;;;;;26.98;5.13;;;7.00;99.90;;;;;;6255975;22;19999;-81
2023/12/12 06:39:47;;;;;;;22.90;4.68;;;7.00;99.90;;;;;;6218193;23;20022;-81
2023/12/12 06:42:13;;;;;;;19.05;4.07;;;7.10;99.90;;;;;;6254973;22;20018;-81
2023/12/12 06:44:39;;;;;;;19.35;3.65;;;7.00;99.90;;;;;;6274223;22;20395;-82
2023/12/12 06:47:05;;;;;;;22.83;3.80;;;7.10;99.90;;;;;;6281435;22;20003;-83
2023/12/12 06:49:32;;;;;;;31.13;3.85;;;7.10;99.90;;;;;;6281464;22;20091;-83
2023/12/12 06:51:58;;;;;;;17.33;3.83;;;7.10;99.90;;;;;;6281574;22;20031;-83
2023/12/12 06:54:23;;;;;;;15.68;2.97;;;7.10;99.90;;;;;;6282551;22;20450;-82
2023/12/12 06:56:49;;;;;;;17.45;3.58;;;7.10;99.90;;;;;;6281961;22;20023;-80
2023/12/12 06:59:15;;;;;;;16.58;3.30;;;7.10;99.90;;;;;;6279261;22;20282;-61
2023/12/12 07:01:40;;;;;;;34.72;3.92;;;7.10;99.90;;;;;;6301159;22;20007;-62
2023/12/12 07:04:06;;;;;;;17.50;3.00;;;7.10;99.90;;;;;;6304705;22;20003;-62
2023/12/12 07:06:32;;;;;;;11.55;3.10;;;7.10;99.90;;;;;;6305316;22;19999;-61
2023/12/12 07:08:57;;;;;;;24.13;4.63;;;7.10;99.90;;;;;;6304783;22;20003;-62
2023/12/12 07:11:23;;;;;;;22.05;5.85;;;7.10;99.90;;;;;;6304561;22;20049;-62
2023/12/12 07:13:49;;;;;;;34.20;9.98;;;7.10;99.90;;;;;;6304712;22;20007;-62
2023/12/12 07:16:14;;;;;;;44.28;15.35;;;7.10;99.90;;;;;;6304314;22;20469;-62
2023/12/12 07:18:40;;;;;;;58.90;25.08;;;7.10;99.90;;;;;;6303272;22;20014;-62
2023/12/12 07:21:06;;;;;;;76.60;25.55;;;7.10;99.90;;;;;;6304371;22;20451;-62
2023/12/12 07:23:32;;;;;;;58.38;18.23;;;7.10;99.90;;;;;;6304131;22;20009;-62
2023/12/12 07:25:59;;;;;;;41.38;11.55;;;7.10;99.90;;;;;;6276918;22;20086;-62
2023/12/12 07:28:25;;;;;;;25.58;9.15;;;7.10;99.90;;;;;;6305173;22;20060;-62
2023/12/12 07:30:51;;;;;;;20.95;6.28;;;7.10;99.90;;;;;;6304582;22;20007;-61
2023/12/12 07:33:16;;;;;;;21.20;4.85;;;7.10;99.90;;;;;;6301472;22;20003;-62
2023/12/12 07:35:42;;;;;;;19.05;3.50;;;7.10;99.90;;;;;;6304575;22;20137;-62
2023/12/12 07:38:07;;;;;;;27.02;4.07;;;7.10;99.90;;;;;;6295186;22;20004;-63
2023/12/12 07:40:33;;;;;;;16.30;3.67;;;7.10;99.90;;;;;;6276515;22;20027;-63
2023/12/12 07:42:59;;;;;;;16.58;3.08;;;7.20;99.90;;;;;;6303579;22;19999;-62
2023/12/12 07:45:25;;;;;;;28.77;7.30;;;7.20;99.90;;;;;;6303614;22;20007;-62
2023/12/12 07:47:50;;;;;;;32.33;10.25;;;7.10;99.90;;;;;;6302615;22;20013;-60
2023/12/12 07:50:17;;;;;;;30.65;11.18;;;7.20;99.90;;;;;;6302780;22;20010;-61
2023/12/12 07:52:43;;;;;;;25.83;8.30;;;7.20;99.90;;;;;;6304251;22;20011;-61
2023/12/12 07:55:09;;;;;;;20.05;5.13;;;7.20;99.90;;;;;;6303454;22;20376;-62
2023/12/12 07:57:36;;;;;;;12.98;3.05;;;7.20;99.90;;;;;;6303607;22;20426;-62
2023/12/12 08:00:05;;;;;;;19.27;4.07;;;7.20;99.90;;;;;;6303935;22;20031;-61
2023/12/12 08:02:31;;;;;;;21.45;3.47;;;7.20;99.90;;;;;;6303671;22;20051;-61
2023/12/12 08:04:57;;;;;;;18.27;2.83;;;7.20;99.90;;;;;;6304056;22;20003;-61
2023/12/12 08:07:23;;;;;;;14.38;2.63;;;7.20;99.90;;;;;;6304115;22;20010;-61
2023/12/12 08:09:48;;;;;;;21.58;4.10;;;7.20;99.90;;;;;;6304133;22;20007;-61
2023/12/12 08:12:14;;;;;;;12.30;3.33;;;7.20;99.90;;;;;;6304422;22;20003;-61
2023/12/12 08:14:39;;;;;;;13.48;4.38;;;7.10;99.90;;;;;;6304560;22;20141;-62
2023/12/12 08:17:05;;;;;;;23.98;5.25;;;7.10;99.90;;;;;;6302625;22;19999;-60
2023/12/12 08:19:31;;;;;;;13.23;3.03;;;7.00;99.90;;;;;;6304369;22;20026;-62
2023/12/12 08:21:57;;;;;;;13.75;4.25;;;7.10;99.90;;;;;;6304178;22;20326;-60
2023/12/12 08:24:22;;;;;;;21.67;3.00;;;7.00;99.90;;;;;;6304016;22;20035;-61
2023/12/12 08:26:48;;;;;;;22.50;4.10;;;7.00;99.90;;;;;;6303251;22;20072;-61
2023/12/12 08:29:14;;;;;;;17.75;4.03;;;7.00;99.90;;;;;;6302363;22;20477;-62
2023/12/12 08:31:40;;;;;;;12.93;2.65;;;6.90;99.90;;;;;;6304298;22;20088;-60
2023/12/12 08:34:06;;;;;;;23.08;3.35;;;7.00;99.90;;;;;;6303381;22;20498;-62
2023/12/12 08:36:32;;;;;;;21.88;2.95;;;7.00;99.90;;;;;;6304278;22;20002;-60
2023/12/12 08:38:59;;;;;;;15.18;2.60;;;7.00;99.90;;;;;;6303579;22;20488;-61
2023/12/12 08:41:30;;;;;;;13.73;2.63;;;7.00;99.90;;;;;;6299412;22;20007;-62
2023/12/12 08:43:59;;;;;;;21.65;3.83;;;7.00;99.90;;;;;;6304665;22;20011;-62
2023/12/12 08:46:28;;;;;;;21.25;3.33;;;7.00;99.90;;;;;;6303159;22;20030;-62
2023/12/12 08:48:57;;;;;;;18.88;3.28;;;7.10;99.90;;;;;;6304393;22;20319;-61
2023/12/12 08:51:24;;;;;;;13.52;3.28;;;7.20;99.90;;;;;;6303920;22;20003;-62
2023/12/12 08:53:51;;;;;;;17.75;3.45;;;7.20;99.90;;;;;;6303969;22;20003;-61
2023/12/12 08:56:17;;;;;;;16.75;3.97;;;7.20;99.90;;;;;;6303735;22;20004;-61
2023/12/12 08:58:44;;;;;;;11.93;2.63;;;7.30;99.90;;;;;;6304143;22;20095;-61
2023/12/12 09:01:10;;;;;;;21.60;2.58;;;7.20;99.90;;;;;;6303350;22;20007;-61
2023/12/12 09:03:35;;;;;;;19.30;2.95;;;7.30;99.90;;;;;;6303882;22;20416;-62
2023/12/12 09:06:02;;;;;;;22.83;3.15;;;7.30;99.90;;;;;;6303096;22;20014;-61
2023/12/12 09:08:27;;;;;;;8.98;2.30;;;7.30;99.90;;;;;;6303928;22;20078;-61
2023/12/12 09:10:53;;;;;;;17.02;2.80;;;7.40;99.90;;;;;;6276526;22;20031;-62
2023/12/12 09:13:19;;;;;;;17.08;3.53;;;7.40;99.90;;;;;;6303329;22;20067;-62
2023/12/12 09:15:44;;;;;;;19.77;3.70;;;7.40;99.90;;;;;;6303075;22;20023;-61
2023/12/12 09:18:10;;;;;;;16.35;3.58;;;7.50;99.90;;;;;;6304024;22;20033;-62
2023/12/12 09:20:36;;;;;;;16.50;3.25;;;7.50;99.90;;;;;;6304012;22;20007;-62
2023/12/12 09:23:01;;;;;;;11.25;2.83;;;7.70;99.90;;;;;;6303252;22;20320;-61
2023/12/12 09:25:27;;;;;;;13.93;2.60;;;7.80;99.90;;;;;;6303404;22;20010;-62
2023/12/12 09:27:53;;;;;;;17.65;3.42;;;7.90;99.90;;;;;;6303764;22;20380;-62
2023/12/12 09:30:18;;;;;;;20.85;3.88;;;8.10;99.90;;;;;;6303155;22;20007;-62
2023/12/12 09:32:44;;;;;;;14.13;2.88;;;8.30;99.90;;;;;;6303255;22;20003;-60
2023/12/12 09:35:10;;;;;;;12.55;2.63;;;8.40;99.90;;;;;;6302559;22;20003;-61
2023/12/12 09:37:36;;;;;;;24.77;3.47;;;8.50;99.90;;;;;;6303409;22;20331;-61
2023/12/12 09:40:03;;;;;;;10.07;2.67;;;8.50;99.90;;;;;;6271645;22;20056;-60
2023/12/12 09:42:32;;;;;;;11.35;3.42;;;8.70;99.90;;;;;;6305251;22;20003;-61
2023/12/12 09:45:00;;;;;;;18.33;3.63;;;8.80;99.90;;;;;;6304974;22;20070;-62
2023/12/12 09:47:30;;;;;;;9.95;1.73;;;8.90;99.90;;;;;;6304883;22;20088;-62
2023/12/12 09:49:58;;;;;;;14.60;2.30;;;8.90;99.90;;;;;;6304974;22;20014;-62
2023/12/12 09:52:26;;;;;;;22.45;3.03;;;8.90;99.90;;;;;;6305139;22;20322;-61
2023/12/12 09:54:53;;;;;;;15.98;2.83;;;8.90;99.90;;;;;;6278829;22;20003;-62
2023/12/12 09:57:20;;;;;;;10.02;2.95;;;9.00;99.90;;;;;;6305408;22;19995;-61
2023/12/12 09:59:45;;;;;;;11.52;2.50;;;9.00;99.90;;;;;;6304687;22;20003;-62
2023/12/12 10:02:21;;;;;;;13.75;2.65;;;9.00;99.90;;;;;;6305612;22;19999;-61
2023/12/12 10:04:49;;;;;;;21.90;3.80;;;9.00;99.90;;;;;;6305770;22;20015;-61
2023/12/12 10:07:17;;;;;;;11.23;2.88;;;9.00;99.90;;;;;;6303615;22;20007;-62
2023/12/12 10:09:43;;;;;;;16.48;2.67;;;9.00;99.90;;;;;;6302996;22;20007;-62
2023/12/12 10:12:09;;;;;;;13.88;2.80;;;9.10;99.90;;;;;;6305458;22;20010;-63
2023/12/12 10:14:39;;;;;;;14.65;3.35;;;9.10;99.90;;;;;;6278293;22;20086;-62
2023/12/12 10:17:06;;;;;;;20.55;3.25;;;9.10;99.90;;;;;;6278481;22;19999;-62
2023/12/12 10:19:32;;;;;;;18.27;3.05;;;9.10;99.90;;;;;;6304892;22;20443;-61
2023/12/12 10:22:05;;;;;;;13.98;3.83;;;9.20;99.90;;;;;;6305101;22;20007;-62
2023/12/12 10:24:30;;;;;;;13.55;2.78;;;9.20;99.90;;;;;;6305053;22;20382;-62
2023/12/12 10:26:56;;;;;;;12.52;2.15;;;9.20;99.90;;;;;;6305443;22;20031;-62
2023/12/12 10:29:22;;;;;;;14.85;2.65;;;9.20;99.90;;;;;;6305474;22;20007;-62
2023/12/12 10:31:48;;;;;;;16.98;4.00;;;9.40;99.90;;;;;;6304609;22;20007;-62
2023/12/12 10:34:17;;;;;;;15.95;2.45;;;9.40;99.90;;;;;;6304608;22;20032;-62
2023/12/12 10:36:46;;;;;;;13.18;2.45;;;9.40;99.90;;;;;;6305527;22;20015;-63
2023/12/12 10:39:13;;;;;;;13.55;2.70;;;9.50;99.90;;;;;;6304996;22;20034;-61
2023/12/12 10:41:39;;;;;;;9.55;2.33;;;9.60;99.90;;;;;;6303980;22;20082;-62
2023/12/12 10:44:08;;;;;;;6.70;1.77;;;9.60;99.90;;;;;;6304391;22;20030;-61
2023/12/12 10:46:37;;;;;;;11.07;3.80;;;9.60;99.90;;;;;;6305041;22;20000;-61
2023/12/12 10:49:03;;;;;;;12.60;2.42;;;9.70;99.90;;;;;;6300588;22;20006;-62
2023/12/12 10:51:29;;;;;;;13.75;2.67;;;9.70;99.90;;;;;;6304436;22;20049;-61
2023/12/12 10:53:56;;;;;;;13.38;2.95;;;9.80;99.90;;;;;;6305357;22;20010;-61
2023/12/12 10:56:23;;;;;;;13.30;2.33;;;9.80;99.90;;;;;;6305742;22;20066;-62
2023/12/12 10:58:49;;;;;;;17.40;2.80;;;9.90;99.90;;;;;;6304733;22;20007;-62
2023/12/12 11:01:15;;;;;;;12.93;3.00;;;10.00;99.90;;;;;;6304293;22;20048;-62
2023/12/12 11:03:41;;;;;;;14.77;2.50;;;10.00;99.90;;;;;;6304139;22;20014;-62
2023/12/12 11:06:09;;;;;;;9.02;1.90;;;10.10;99.90;;;;;;6305442;22;20003;-62
2023/12/12 11:08:35;;;;;;;16.17;2.53;;;10.30;99.90;;;;;;6304478;22;20474;-62
2023/12/12 11:11:11;;;;;;;8.55;2.25;;;10.30;99.90;;;;;;6303586;22;20073;-62
2023/12/12 11:13:41;;;;;;;12.23;2.42;;;10.30;99.90;;;;;;6304887;22;20000;-62
2023/12/12 11:16:08;;;;;;;14.38;2.00;;;10.20;99.90;;;;;;6305348;22;19999;-62
2023/12/12 11:18:39;;;;;;;9.60;2.15;;;10.20;99.90;;;;;;6276970;22;20007;-62
2023/12/12 11:21:05;;;;;;;8.30;1.75;;;10.10;99.90;;;;;;6303740;22;20074;-61
2023/12/12 11:23:46;;;;;;;8.82;2.22;;;10.00;99.90;;;;;;6303982;22;20429;-62
2023/12/12 11:26:15;;;;;;;8.73;2.05;;;9.90;99.90;;;;;;6304181;22;20007;-61
2023/12/12 11:28:42;;;;;;;14.65;3.72;;;9.90;99.90;;;;;;6304091;22;20006;-62
2023/12/12 11:31:08;;;;;;;8.23;2.70;;;9.90;99.90;;;;;;6303565;22;20004;-62
2023/12/12 11:34:06;;;;;;;19.00;3.95;;;9.90;99.90;;;;;;6304832;22;20335;-62
2023/12/12 11:36:57;;;;;;;10.52;2.13;;;9.90;99.90;;;;;;6304231;22;20078;-61
2023/12/12 11:39:30;;;;;;;6.90;1.70;;;9.80;99.90;;;;;;6302473;22;20022;-61
2023/12/12 11:41:58;;;;;;;7.85;1.90;;;9.80;99.90;;;;;;6303982;22;20000;-62
2023/12/12 11:44:23;;;;;;;15.38;2.45;;;9.70;99.90;;;;;;6304794;22;20061;-62
2023/12/12 11:46:51;;;;;;;13.05;2.70;;;9.70;99.90;;;;;;6305058;22;20086;-61
2023/12/12 11:49:24;;;;;;;12.98;2.45;;;9.70;99.90;;;;;;6275240;22;20011;-61
2023/12/12 11:51:50;;;;;;;5.40;2.03;;;9.60;99.90;;;;;;6304347;22;20053;-61
2023/12/12 11:54:21;;;;;;;8.25;2.33;;;9.50;99.90;;;;;;6302520;22;20072;-61
2023/12/12 11:56:47;;;;;;;15.60;2.70;;;9.40;99.90;;;;;;6273389;22;20014;-61
2023/12/12 11:59:20;;;;;;;15.50;2.50;;;9.40;99.90;;;;;;6303097;22;19999;-62
2023/12/12 12:01:46;;;;;;;9.35;1.73;;;9.40;99.90;;;;;;6302621;22;20022;-61
2023/12/12 12:04:11;;;;;;;14.23;2.10;;;9.40;99.90;;;;;;6302741;22;20687;-62
2023/12/12 12:06:38;;;;;;;11.88;2.20;;;9.50;99.90;;;;;;6302920;22;20033;-61
2023/12/12 12:09:05;;;;;;;11.30;2.53;;;9.40;99.90;;;;;;6302425;22;20007;-61
2023/12/12 12:11:38;;;;;;;16.95;2.53;;;9.40;99.90;;;;;;6302557;22;20007;-61
2023/12/12 12:14:03;;;;;;;15.27;2.40;;;9.50;99.90;;;;;;6303407;22;20014;-61
2023/12/12 12:16:29;;;;;;;11.00;2.13;;;9.60;99.90;;;;;;6304295;22;20520;-61
2023/12/12 12:18:55;;;;;;;9.90;2.10;;;9.70;99.90;;;;;;6303113;22;20003;-61
2023/12/12 12:21:27;;;;;;;7.10;2.42;;;9.80;99.90;;;;;;6304031;22;20432;-62
2023/12/12 12:23:54;;;;;;;8.68;2.55;;;9.80;99.90;;;;;;6302682;22;20003;-63
2023/12/12 12:26:20;;;;;;;11.65;2.42;;;9.80;99.90;;;;;;6303466;22;20025;-62
2023/12/12 12:28:46;;;;;;;19.23;2.97;;;9.70;99.90;;;;;;6302424;22;20431;-61
2023/12/12 12:31:11;;;;;;;15.23;2.70;;;9.70;99.90;;;;;;6303788;22;20011;-61
2023/12/12 12:33:38;;;;;;;12.10;2.05;;;9.70;99.90;;;;;;6303750;22;20007;-61
2023/12/12 12:36:05;;;;;;;9.77;1.80;;;9.80;99.90;;;;;;6302316;22;20003;-62
2023/12/12 12:38:31;;;;;;;6.50;1.92;;;9.70;99.90;;;;;;6303568;22;20407;-61
2023/12/12 12:40:58;;;;;;;17.65;2.25;;;9.70;99.90;;;;;;6303878;22;20010;-61